Massillon, OH

12:21 PM EDT on August 27, 2016 (GMT -0400)
Angel's Rest Cottage | | Change Station

Elev 1115 ft 40.87 °N, 81.50 °W | Updated 13 minutes ago

Scattered Clouds
Scattered Clouds
82.6 °F
Feels Like 85 °F
N
2.2
Wind Variable Wind from WSW

Today
High -- | Low -- °F
--% Chance of Precip.
Yesterday
High -- | Low -- °F
Precip. -- in
Pressure 30.16 in
Visibility 10.0 miles
Clouds Scattered Clouds 25000 ft
Heat Index 85 °F
Dew Point 66 °F
Humidity 57%
Rainfall 0.00 in
Snow Depth Not available.
6:48 AM 8:05 PM
Waning Crescent, 23% visible
METAR KCAK 271551Z 16008KT 10SM SCT250 27/17 A3019 RMK AO2 SLP213 T02670172
Pressure 30.16 in
Visibility 10.0 miles
Clouds Scattered Clouds 25000 ft
Heat Index 85 °F
Dew Point 66 °F
Humidity 57%
Rainfall 0.00 in
Snow Depth Not available.
6:48 AM 8:05 PM
Waning Crescent, 23% visible
METAR KCAK 271551Z 16008KT 10SM SCT250 27/17 A3019 RMK AO2 SLP213 T02670172

10-Day Weather Forecast

Almanac

Astronomy

Aug. 27, 2016 Rise Set
Actual Time
Civil Twilight
Nautical Twilight
Astronomical Twilight
Moon
Length of Visible Light
Length of Day
Tomorrow will be .
, % of the Moon is Illuminated

Today's Extremes

State Highs State Lows

Community

WunderPhotos

Upload Photos

1,935,375 photos uploaded!

WunderBlog® & News

Nearby

Air Quality

  Air Quality AQ Index Pollutant
Not available.

Snow Depth

Station Depth Elevation

Earthquake Activity

City Distance Mag. Time & Date
Minimum magnitude displayed is 2.5.

Coastal Water Temperatures

Place Temperature

Stations

Nearby Weather Stations

Station Location Temp. Windchill Dew Point Humidity Wind Precip. Elev Updated Type
                   

Watches & Warnings

There are currently no watches in effect.